sensor_id;sensor_type;location;lat;lon;timestamp;pressure;altitude;pressure_sealevel;temperature;humidity
65997;BME280;52765;52.258;21.052;2022-08-21T00:01:30;100266.25;;;23.43;80.40
65997;BME280;52765;52.258;21.052;2022-08-21T00:03:56;100273.28;;;23.39;80.67
65997;BME280;52765;52.258;21.052;2022-08-21T00:06:22;100253.28;;;23.27;80.94
65997;BME280;52765;52.258;21.052;2022-08-21T00:08:50;100249.31;;;23.23;81.05
65997;BME280;52765;52.258;21.052;2022-08-21T00:11:16;100257.66;;;23.28;81.09
65997;BME280;52765;52.258;21.052;2022-08-21T00:13:43;100251.34;;;23.27;81.50
65997;BME280;52765;52.258;21.052;2022-08-21T00:16:09;100257.09;;;23.26;81.63
65997;BME280;52765;52.258;21.052;2022-08-21T00:18:34;100247.19;;;23.13;81.90
65997;BME280;52765;52.258;21.052;2022-08-21T00:21:00;100260.94;;;23.13;82.38
65997;BME280;52765;52.258;21.052;2022-08-21T00:23:26;100255.56;;;23.06;82.43
65997;BME280;52765;52.258;21.052;2022-08-21T00:25:51;100268.81;;;23.09;83.04
65997;BME280;52765;52.258;21.052;2022-08-21T00:28:17;100256.44;;;23.07;82.98
65997;BME280;52765;52.258;21.052;2022-08-21T00:30:43;100250.06;;;23.06;83.04
65997;BME280;52765;52.258;21.052;2022-08-21T00:33:10;100246.13;;;23.02;83.06
65997;BME280;52765;52.258;21.052;2022-08-21T00:35:39;100245.06;;;23.03;83.27
65997;BME280;52765;52.258;21.052;2022-08-21T00:38:06;100243.50;;;23.07;83.28
65997;BME280;52765;52.258;21.052;2022-08-21T00:40:54;100233.81;;;23.05;82.87
65997;BME280;52765;52.258;21.052;2022-08-21T00:43:25;100245.88;;;23.04;83.27
65997;BME280;52765;52.258;21.052;2022-08-21T00:45:51;100251.28;;;22.99;83.39
65997;BME280;52765;52.258;21.052;2022-08-21T00:48:16;100234.44;;;22.95;83.70
65997;BME280;52765;52.258;21.052;2022-08-21T00:50:50;100243.25;;;22.97;83.70
65997;BME280;52765;52.258;21.052;2022-08-21T00:53:18;100234.44;;;22.95;83.80
65997;BME280;52765;52.258;21.052;2022-08-21T00:55:45;100226.91;;;22.90;83.81
65997;BME280;52765;52.258;21.052;2022-08-21T00:58:12;100231.47;;;22.85;83.70
65997;BME280;52765;52.258;21.052;2022-08-21T01:00:41;100241.38;;;22.86;84.18
65997;BME280;52765;52.258;21.052;2022-08-21T01:03:15;100230.28;;;22.81;84.94
65997;BME280;52765;52.258;21.052;2022-08-21T01:05:41;100233.25;;;22.79;85.15
65997;BME280;52765;52.258;21.052;2022-08-21T01:08:08;100231.00;;;22.76;85.24
65997;BME280;52765;52.258;21.052;2022-08-21T01:10:35;100238.41;;;22.76;85.04
65997;BME280;52765;52.258;21.052;2022-08-21T01:13:01;100226.72;;;22.68;85.18
65997;BME280;52765;52.258;21.052;2022-08-21T01:15:31;100232.78;;;22.70;85.23
65997;BME280;52765;52.258;21.052;2022-08-21T01:17:58;100229.59;;;22.62;85.66
65997;BME280;52765;52.258;21.052;2022-08-21T01:20:25;100228.25;;;22.52;85.51
65997;BME280;52765;52.258;21.052;2022-08-21T01:22:51;100221.34;;;22.50;86.20
65997;BME280;52765;52.258;21.052;2022-08-21T01:25:17;100218.63;;;22.50;86.12
65997;BME280;52765;52.258;21.052;2022-08-21T01:27:45;100222.53;;;22.54;86.19
65997;BME280;52765;52.258;21.052;2022-08-21T01:30:17;100220.63;;;22.54;86.16
65997;BME280;52765;52.258;21.052;2022-08-21T01:32:44;100220.03;;;22.52;86.38
65997;BME280;52765;52.258;21.052;2022-08-21T01:35:10;100219.44;;;22.50;86.57
65997;BME280;52765;52.258;21.052;2022-08-21T01:37:36;100218.22;;;22.46;86.38
65997;BME280;52765;52.258;21.052;2022-08-21T01:40:04;100207.75;;;22.43;86.83
65997;BME280;52765;52.258;21.052;2022-08-21T01:42:29;100207.38;;;22.40;87.00
65997;BME280;52765;52.258;21.052;2022-08-21T01:44:55;100199.88;;;22.35;87.30
65997;BME280;52765;52.258;21.052;2022-08-21T01:47:22;100200.81;;;22.29;87.62
65997;BME280;52765;52.258;21.052;2022-08-21T01:49:47;100196.38;;;22.28;87.68
65997;BME280;52765;52.258;21.052;2022-08-21T01:52:13;100196.38;;;22.28;88.03
65997;BME280;52765;52.258;21.052;2022-08-21T01:54:39;100195.19;;;22.24;87.96
65997;BME280;52765;52.258;21.052;2022-08-21T01:57:05;100191.59;;;22.23;87.81
65997;BME280;52765;52.258;21.052;2022-08-21T01:59:31;100187.66;;;22.19;87.74
65997;BME280;52765;52.258;21.052;2022-08-21T02:01:57;100198.88;;;22.17;88.49
65997;BME280;52765;52.258;21.052;2022-08-21T02:04:22;100185.16;;;22.06;88.40
65997;BME280;52765;52.258;21.052;2022-08-21T02:06:49;100180.97;;;22.03;88.73
65997;BME280;52765;52.258;21.052;2022-08-21T02:09:14;100188.34;;;22.03;88.64
65997;BME280;52765;52.258;21.052;2022-08-21T02:11:41;100190.88;;;22.04;88.77
65997;BME280;52765;52.258;21.052;2022-08-21T02:14:08;100186.09;;;21.99;89.16
65997;BME280;52765;52.258;21.052;2022-08-21T02:16:34;100191.09;;;22.03;88.94
65997;BME280;52765;52.258;21.052;2022-08-21T02:19:00;100189.91;;;21.98;88.75
65997;BME280;52765;52.258;21.052;2022-08-21T02:21:26;100193.47;;;21.87;89.55
65997;BME280;52765;52.258;21.052;2022-08-21T02:23:51;100189.03;;;21.86;89.72
65997;BME280;52765;52.258;21.052;2022-08-21T02:26:17;100191.78;;;21.86;90.22
65997;BME280;52765;52.258;21.052;2022-08-21T02:28:42;100185.94;;;21.83;90.31
65997;BME280;52765;52.258;21.052;2022-08-21T02:31:08;100181.28;;;21.83;90.61
65997;BME280;52765;52.258;21.052;2022-08-21T02:33:34;100181.38;;;21.76;90.51
65997;BME280;52765;52.258;21.052;2022-08-21T02:36:00;100177.94;;;21.81;90.54
65997;BME280;52765;52.258;21.052;2022-08-21T02:38:30;100173.56;;;21.80;90.90
65997;BME280;52765;52.258;21.052;2022-08-21T02:40:56;100171.25;;;21.65;91.04
65997;BME280;52765;52.258;21.052;2022-08-21T02:43:24;100172.69;;;21.68;91.24
65997;BME280;52765;52.258;21.052;2022-08-21T02:45:51;100165.88;;;21.58;91.67
65997;BME280;52765;52.258;21.052;2022-08-21T02:48:20;100168.63;;;21.58;91.79
65997;BME280;52765;52.258;21.052;2022-08-21T02:50:50;100174.19;;;21.52;91.98
65997;BME280;52765;52.258;21.052;2022-08-21T02:53:16;100166.66;;;21.47;92.49
65997;BME280;52765;52.258;21.052;2022-08-21T02:55:44;100167.03;;;21.51;92.52
65997;BME280;52765;52.258;21.052;2022-08-21T02:58:11;100156.97;;;21.44;92.52
65997;BME280;52765;52.258;21.052;2022-08-21T03:00:37;100161.25;;;21.40;92.98
65997;BME280;52765;52.258;21.052;2022-08-21T03:03:04;100162.91;;;21.41;93.31
65997;BME280;52765;52.258;21.052;2022-08-21T03:05:31;100153.00;;;21.29;93.18
65997;BME280;52765;52.258;21.052;2022-08-21T03:07:58;100163.31;;;21.26;93.90
65997;BME280;52765;52.258;21.052;2022-08-21T03:10:24;100156.88;;;21.21;93.79
65997;BME280;52765;52.258;21.052;2022-08-21T03:12:50;100156.06;;;21.20;94.56
65997;BME280;52765;52.258;21.052;2022-08-21T03:15:18;100163.09;;;21.28;94.27
65997;BME280;52765;52.258;21.052;2022-08-21T03:17:45;100158.94;;;21.25;93.88
65997;BME280;52765;52.258;21.052;2022-08-21T03:20:19;100157.03;;;21.26;93.91
65997;BME280;52765;52.258;21.052;2022-08-21T03:22:47;100153.19;;;21.15;94.14
65997;BME280;52765;52.258;21.052;2022-08-21T03:25:12;100155.19;;;21.20;94.38
65997;BME280;52765;52.258;21.052;2022-08-21T03:27:39;100161.53;;;21.20;94.45
65997;BME280;52765;52.258;21.052;2022-08-21T03:30:06;100155.19;;;21.20;94.43
65997;BME280;52765;52.258;21.052;2022-08-21T03:32:32;100142.47;;;21.14;94.17
65997;BME280;52765;52.258;21.052;2022-08-21T03:34:58;100164.75;;;21.17;94.05
65997;BME280;52765;52.258;21.052;2022-08-21T03:37:25;100149.69;;;21.08;94.38
65997;BME280;52765;52.258;21.052;2022-08-21T03:39:51;100152.41;;;21.08;94.79
65997;BME280;52765;52.258;21.052;2022-08-21T03:42:16;100147.66;;;21.03;95.09
65997;BME280;52765;52.258;21.052;2022-08-21T03:44:43;100151.22;;;21.04;95.45
65997;BME280;52765;52.258;21.052;2022-08-21T03:47:09;100152.50;;;21.01;94.97
65997;BME280;52765;52.258;21.052;2022-08-21T03:49:36;100156.25;;;21.07;95.16
65997;BME280;52765;52.258;21.052;2022-08-21T03:52:03;100159.56;;;21.09;94.92
65997;BME280;52765;52.258;21.052;2022-08-21T03:54:28;100165.75;;;21.04;94.87
65997;BME280;52765;52.258;21.052;2022-08-21T03:56:54;100153.22;;;20.97;95.10
65997;BME280;52765;52.258;21.052;2022-08-21T03:59:20;100169.78;;;21.02;95.18
65997;BME280;52765;52.258;21.052;2022-08-21T04:01:57;100167.19;;;21.07;94.92
65997;BME280;52765;52.258;21.052;2022-08-21T04:04:23;100171.66;;;21.01;95.33
65997;BME280;52765;52.258;21.052;2022-08-21T04:06:49;100164.44;;;21.07;95.63
65997;BME280;52765;52.258;21.052;2022-08-21T04:09:16;100171.13;;;21.11;95.17
65997;BME280;52765;52.258;21.052;2022-08-21T04:11:41;100173.03;;;21.11;95.18
65997;BME280;52765;52.258;21.052;2022-08-21T04:14:06;100171.81;;;21.06;95.13
65997;BME280;52765;52.258;21.052;2022-08-21T04:16:32;100167.41;;;21.05;95.28
65997;BME280;52765;52.258;21.052;2022-08-21T04:18:58;100172.66;;;21.07;95.27
65997;BME280;52765;52.258;21.052;2022-08-21T04:21:23;100167.34;;;21.12;95.13
65997;BME280;52765;52.258;21.052;2022-08-21T04:23:49;100160.78;;;21.13;94.41
65997;BME280;52765;52.258;21.052;2022-08-21T04:26:15;100174.06;;;21.28;94.16
65997;BME280;52765;52.258;21.052;2022-08-21T04:28:41;100174.47;;;21.32;93.56
65997;BME280;52765;52.258;21.052;2022-08-21T04:31:08;100174.19;;;21.33;93.39
65997;BME280;52765;52.258;21.052;2022-08-21T04:33:34;100163.31;;;21.26;93.48
65997;BME280;52765;52.258;21.052;2022-08-21T04:35:59;100173.97;;;21.35;93.65
65997;BME280;52765;52.258;21.052;2022-08-21T04:38:25;100156.09;;;21.32;93.39
65997;BME280;52765;52.258;21.052;2022-08-21T04:40:51;100157.28;;;21.36;92.85
65997;BME280;52765;52.258;21.052;2022-08-21T04:43:18;100161.72;;;21.37;92.97
65997;BME280;52765;52.258;21.052;2022-08-21T04:45:46;100142.28;;;21.27;92.71
65997;BME280;52765;52.258;21.052;2022-08-21T04:48:15;100152.19;;;21.40;92.98
65997;BME280;52765;52.258;21.052;2022-08-21T04:50:45;100162.16;;;21.53;92.16
65997;BME280;52765;52.258;21.052;2022-08-21T04:53:19;100125.28;;;21.37;91.90
65997;BME280;52765;52.258;21.052;2022-08-21T04:55:46;100143.19;;;21.51;91.93
65997;BME280;52765;52.258;21.052;2022-08-21T04:58:15;100151.22;;;21.65;91.75
65997;BME280;52765;52.258;21.052;2022-08-21T05:00:43;100157.06;;;21.68;91.43
65997;BME280;52765;52.258;21.052;2022-08-21T05:03:10;100157.81;;;21.75;90.87
65997;BME280;52765;52.258;21.052;2022-08-21T05:05:36;100149.81;;;21.74;90.79
65997;BME280;52765;52.258;21.052;2022-08-21T05:08:04;100163.78;;;21.84;90.35
65997;BME280;52765;52.258;21.052;2022-08-21T05:10:31;100163.31;;;21.87;90.37
65997;BME280;52765;52.258;21.052;2022-08-21T05:12:57;100165.94;;;21.94;89.81
65997;BME280;52765;52.258;21.052;2022-08-21T05:15:24;100161.03;;;21.96;90.01
65997;BME280;52765;52.258;21.052;2022-08-21T05:17:49;100166.41;;;22.03;89.70
65997;BME280;52765;52.258;21.052;2022-08-21T05:20:15;100163.22;;;22.06;89.46
65997;BME280;52765;52.258;21.052;2022-08-21T05:22:41;100161.66;;;22.10;89.56
65997;BME280;52765;52.258;21.052;2022-08-21T05:25:09;100162.63;;;22.15;89.04
65997;BME280;52765;52.258;21.052;2022-08-21T05:27:35;100157.97;;;22.16;89.04
65997;BME280;52765;52.258;21.052;2022-08-21T05:30:01;100166.66;;;22.25;88.90
65997;BME280;52765;52.258;21.052;2022-08-21T05:32:27;100157.13;;;22.27;88.95
65997;BME280;52765;52.258;21.052;2022-08-21T05:34:53;100156.44;;;22.44;88.15
65997;BME280;52765;52.258;21.052;2022-08-21T05:37:20;100146.63;;;22.60;87.51
65997;BME280;52765;52.258;21.052;2022-08-21T05:39:45;100159.00;;;22.74;86.91
65997;BME280;52765;52.258;21.052;2022-08-21T05:42:11;100157.81;;;22.82;86.18
65997;BME280;52765;52.258;21.052;2022-08-21T05:44:36;100147.41;;;22.84;86.09
65997;BME280;52765;52.258;21.052;2022-08-21T05:47:09;100155.00;;;23.05;85.29
65997;BME280;52765;52.258;21.052;2022-08-21T05:49:36;100156.44;;;23.08;84.66
65997;BME280;52765;52.258;21.052;2022-08-21T05:52:02;100157.38;;;23.14;84.15
65997;BME280;52765;52.258;21.052;2022-08-21T05:54:27;100148.66;;;23.17;84.19
65997;BME280;52765;52.258;21.052;2022-08-21T05:56:53;100161.28;;;23.18;84.26
65997;BME280;52765;52.258;21.052;2022-08-21T05:59:19;100160.97;;;23.14;84.44
65997;BME280;52765;52.258;21.052;2022-08-21T06:01:45;100162.28;;;23.12;84.57
65997;BME280;52765;52.258;21.052;2022-08-21T06:04:11;100162.03;;;23.01;85.08
65997;BME280;52765;52.258;21.052;2022-08-21T06:06:37;100161.91;;;23.08;84.59
65997;BME280;52765;52.258;21.052;2022-08-21T06:09:04;100165.38;;;23.15;85.05
65997;BME280;52765;52.258;21.052;2022-08-21T06:11:31;100171.91;;;23.26;83.93
65997;BME280;52765;52.258;21.052;2022-08-21T06:14:00;100174.41;;;23.27;83.92
65997;BME280;52765;52.258;21.052;2022-08-21T06:16:26;100186.75;;;23.25;84.26
65997;BME280;52765;52.258;21.052;2022-08-21T06:18:52;100175.03;;;23.18;84.50
65997;BME280;52765;52.258;21.052;2022-08-21T06:21:18;100173.13;;;23.18;84.73
65997;BME280;52765;52.258;21.052;2022-08-21T06:23:44;100182.06;;;23.25;84.36
65997;BME280;52765;52.258;21.052;2022-08-21T06:26:11;100186.59;;;23.32;84.13
65997;BME280;52765;52.258;21.052;2022-08-21T06:28:38;100186.94;;;23.35;83.90
65997;BME280;52765;52.258;21.052;2022-08-21T06:31:19;100177.28;;;23.50;83.71
65997;BME280;52765;52.258;21.052;2022-08-21T06:33:45;100181.63;;;23.45;83.80
65997;BME280;52765;52.258;21.052;2022-08-21T06:36:11;100175.63;;;23.49;83.40
65997;BME280;52765;52.258;21.052;2022-08-21T06:38:37;100167.63;;;23.47;83.14
65997;BME280;52765;52.258;21.052;2022-08-21T06:41:03;100175.56;;;23.60;82.90
65997;BME280;52765;52.258;21.052;2022-08-21T06:43:30;100179.13;;;23.61;82.54
65997;BME280;52765;52.258;21.052;2022-08-21T06:45:55;100172.66;;;23.67;82.68
65997;BME280;52765;52.258;21.052;2022-08-21T06:48:21;100176.41;;;23.78;82.46
65997;BME280;52765;52.258;21.052;2022-08-21T06:50:47;100174.25;;;23.80;82.08
65997;BME280;52765;52.258;21.052;2022-08-21T06:53:15;100170.28;;;23.88;82.05
65997;BME280;52765;52.258;21.052;2022-08-21T06:55:41;100173.44;;;23.96;81.72
65997;BME280;52765;52.258;21.052;2022-08-21T06:58:08;100175.78;;;24.05;81.34
65997;BME280;52765;52.258;21.052;2022-08-21T07:00:37;100178.53;;;24.05;81.07
65997;BME280;52765;52.258;21.052;2022-08-21T07:03:03;100182.97;;;24.06;81.37
65997;BME280;52765;52.258;21.052;2022-08-21T07:05:29;100178.88;;;24.08;81.20
65997;BME280;52765;52.258;21.052;2022-08-21T07:07:56;100185.63;;;24.17;81.37
65997;BME280;52765;52.258;21.052;2022-08-21T07:10:23;100184.38;;;24.25;79.62
65997;BME280;52765;52.258;21.052;2022-08-21T07:12:50;100187.53;;;24.34;79.90
65997;BME280;52765;52.258;21.052;2022-08-21T07:15:16;100177.50;;;24.45;79.60
65997;BME280;52765;52.258;21.052;2022-08-21T07:17:41;100175.84;;;24.44;79.00
65997;BME280;52765;52.258;21.052;2022-08-21T07:20:08;100180.41;;;24.38;78.14
65997;BME280;52765;52.258;21.052;2022-08-21T07:22:35;100181.84;;;24.41;78.42
65997;BME280;52765;52.258;21.052;2022-08-21T07:25:02;100169.41;;;24.38;78.44
65997;BME280;52765;52.258;21.052;2022-08-21T07:27:28;100181.59;;;24.59;78.22
65997;BME280;52765;52.258;21.052;2022-08-21T07:29:54;100169.06;;;24.68;77.92
65997;BME280;52765;52.258;21.052;2022-08-21T07:32:19;100174.94;;;24.77;77.27
65997;BME280;52765;52.258;21.052;2022-08-21T07:34:45;100175.00;;;24.82;77.59
65997;BME280;52765;52.258;21.052;2022-08-21T07:37:10;100162.38;;;24.86;76.94
65997;BME280;52765;52.258;21.052;2022-08-21T07:39:36;100166.38;;;24.96;76.53
65997;BME280;52765;52.258;21.052;2022-08-21T07:42:02;100175.84;;;25.05;75.99
65997;BME280;52765;52.258;21.052;2022-08-21T07:44:28;100158.22;;;25.06;75.76
65997;BME280;52765;52.258;21.052;2022-08-21T07:46:53;100165.78;;;25.16;75.36
65997;BME280;52765;52.258;21.052;2022-08-21T07:49:19;100150.25;;;25.09;75.31
65997;BME280;52765;52.258;21.052;2022-08-21T07:51:45;100136.88;;;24.96;75.43
65997;BME280;52765;52.258;21.052;2022-08-21T07:54:16;100135.59;;;25.04;75.21
65997;BME280;52765;52.258;21.052;2022-08-21T07:56:44;100128.56;;;25.13;74.91
65997;BME280;52765;52.258;21.052;2022-08-21T07:59:11;100130.56;;;25.23;74.38
65997;BME280;52765;52.258;21.052;2022-08-21T08:01:36;100134.31;;;25.34;73.77
65997;BME280;52765;52.258;21.052;2022-08-21T08:04:02;100148.41;;;25.37;73.43
65997;BME280;52765;52.258;21.052;2022-08-21T08:06:28;100151.47;;;25.41;74.34
65997;BME280;52765;52.258;21.052;2022-08-21T08:08:54;100142.63;;;25.39;73.89
65997;BME280;52765;52.258;21.052;2022-08-21T08:11:19;100140.00;;;25.54;73.72
65997;BME280;52765;52.258;21.052;2022-08-21T08:13:47;100142.19;;;25.52;72.79
65997;BME280;52765;52.258;21.052;2022-08-21T08:16:14;100148.28;;;25.54;73.37
65997;BME280;52765;52.258;21.052;2022-08-21T08:18:40;100140.91;;;25.60;73.12
65997;BME280;52765;52.258;21.052;2022-08-21T08:21:08;100132.97;;;25.69;72.91
65997;BME280;52765;52.258;21.052;2022-08-21T08:23:34;100122.75;;;25.69;72.98
65997;BME280;52765;52.258;21.052;2022-08-21T08:26:00;100151.44;;;25.95;72.39
65997;BME280;52765;52.258;21.052;2022-08-21T08:28:28;100136.03;;;26.04;71.99
65997;BME280;52765;52.258;21.052;2022-08-21T08:30:55;100129.44;;;26.06;71.91
65997;BME280;52765;52.258;21.052;2022-08-21T08:33:21;100140.47;;;26.06;72.10
65997;BME280;52765;52.258;21.052;2022-08-21T08:35:49;100138.50;;;26.01;71.71
65997;BME280;52765;52.258;21.052;2022-08-21T08:38:16;100137.41;;;26.02;71.92
65997;BME280;52765;52.258;21.052;2022-08-21T08:43:28;100138.50;;;26.01;68.80
65997;BME280;52765;52.258;21.052;2022-08-21T08:45:57;100137.44;;;26.07;69.21
65997;BME280;52765;52.258;21.052;2022-08-21T08:48:51;100130.28;;;26.11;69.42
65997;BME280;52765;52.258;21.052;2022-08-21T08:51:25;100129.56;;;26.26;69.60
65997;BME280;52765;52.258;21.052;2022-08-21T08:53:58;100122.72;;;26.39;68.12
65997;BME280;52765;52.258;21.052;2022-08-21T08:56:31;100129.19;;;26.60;66.20
65997;BME280;52765;52.258;21.052;2022-08-21T08:59:20;100132.75;;;26.55;66.78
65997;BME280;52765;52.258;21.052;2022-08-21T09:01:47;100126.41;;;26.50;67.18
65997;BME280;52765;52.258;21.052;2022-08-21T09:04:20;100135.34;;;26.67;66.65
65997;BME280;52765;52.258;21.052;2022-08-21T09:26:36;100117.91;;;27.66;57.25
65997;BME280;52765;52.258;21.052;2022-08-21T09:29:10;100126.50;;;27.80;56.39
65997;BME280;52765;52.258;21.052;2022-08-21T09:31:37;100124.28;;;27.97;55.10
65997;BME280;52765;52.258;21.052;2022-08-21T09:34:06;100120.94;;;28.16;54.69
65997;BME280;52765;52.258;21.052;2022-08-21T09:36:37;100125.09;;;28.23;54.31
65997;BME280;52765;52.258;21.052;2022-08-21T09:39:05;100110.41;;;28.28;54.05
65997;BME280;52765;52.258;21.052;2022-08-21T09:41:36;100120.63;;;28.33;54.14
65997;BME280;52765;52.258;21.052;2022-08-21T09:44:03;100123.97;;;28.24;53.94
65997;BME280;52765;52.258;21.052;2022-08-21T09:46:29;100114.81;;;28.24;54.11
65997;BME280;52765;52.258;21.052;2022-08-21T09:49:00;100118.97;;;28.32;53.80
65997;BME280;52765;52.258;21.052;2022-08-21T09:51:32;100114.84;;;28.14;54.36
65997;BME280;52765;52.258;21.052;2022-08-21T09:59:29;100099.56;;;27.13;55.72
65997;BME280;52765;52.258;21.052;2022-08-21T10:01:58;100117.25;;;27.18;56.49
65997;BME280;52765;52.258;21.052;2022-08-21T10:04:34;100114.81;;;27.21;55.95
65997;BME280;52765;52.258;21.052;2022-08-21T10:07:13;100099.03;;;27.17;56.16
65997;BME280;52765;52.258;21.052;2022-08-21T10:09:40;100096.81;;;27.13;56.31
65997;BME280;52765;52.258;21.052;2022-08-21T10:12:15;100112.84;;;27.22;55.67
65997;BME280;52765;52.258;21.052;2022-08-21T10:17:52;100109.03;;;27.33;54.50
65997;BME280;52765;52.258;21.052;2022-08-21T10:20:29;100101.53;;;27.23;54.86
65997;BME280;52765;52.258;21.052;2022-08-21T10:25:47;100102.94;;;27.87;53.18
65997;BME280;52765;52.258;21.052;2022-08-21T10:33:48;100105.16;;;27.85;53.47
65997;BME280;52765;52.258;21.052;2022-08-21T10:36:22;100102.16;;;27.72;53.40
65997;BME280;52765;52.258;21.052;2022-08-21T10:39:56;100097.97;;;27.69;53.33
65997;BME280;52765;52.258;21.052;2022-08-21T10:42:29;100113.75;;;27.79;52.96
65997;BME280;52765;52.258;21.052;2022-08-21T10:45:11;100121.50;;;27.82;52.44
65997;BME280;52765;52.258;21.052;2022-08-21T10:47:47;100114.88;;;27.83;51.74
65997;BME280;52765;52.258;21.052;2022-08-21T10:50:38;100107.66;;;27.87;51.62
65997;BME280;52765;52.258;21.052;2022-08-21T10:55:44;100114.59;;;27.90;50.52
65997;BME280;52765;52.258;21.052;2022-08-21T10:58:21;100112.66;;;27.75;50.27
65997;BME280;52765;52.258;21.052;2022-08-21T11:00:53;100112.34;;;27.71;50.68
65997;BME280;52765;52.258;21.052;2022-08-21T11:05:53;100105.72;;;27.72;49.80
65997;BME280;52765;52.258;21.052;2022-08-21T11:08:38;100098.28;;;27.83;50.30
65997;BME280;52765;52.258;21.052;2022-08-21T11:11:22;100098.81;;;27.90;50.85
65997;BME280;52765;52.258;21.052;2022-08-21T11:19:02;100088.44;;;28.57;50.05
65997;BME280;52765;52.258;21.052;2022-08-21T11:21:42;100081.00;;;29.08;48.98
65997;BME280;52765;52.258;21.052;2022-08-21T11:24:32;100082.63;;;29.53;48.03
65997;BME280;52765;52.258;21.052;2022-08-21T11:27:29;100079.63;;;29.79;45.66
65997;BME280;52765;52.258;21.052;2022-08-21T11:29:59;100076.84;;;29.84;46.07
65997;BME280;52765;52.258;21.052;2022-08-21T11:43:45;100077.69;;;30.81;43.97
65997;BME280;52765;52.258;21.052;2022-08-21T11:46:39;100084.84;;;30.88;43.87
65997;BME280;52765;52.258;21.052;2022-08-21T11:49:49;100080.22;;;30.78;43.01
65997;BME280;52765;52.258;21.052;2022-08-21T11:52:21;100084.13;;;30.29;43.28
65997;BME280;52765;52.258;21.052;2022-08-21T11:55:15;100084.59;;;29.82;45.20
65997;BME280;52765;52.258;21.052;2022-08-21T12:00:32;100086.25;;;29.04;47.70
65997;BME280;52765;52.258;21.052;2022-08-21T12:03:10;100093.25;;;28.96;47.94
65997;BME280;52765;52.258;21.052;2022-08-21T12:05:41;100090.53;;;28.81;48.36
65997;BME280;52765;52.258;21.052;2022-08-21T12:11:22;100085.28;;;29.34;46.94
65997;BME280;52765;52.258;21.052;2022-08-21T12:14:14;100069.13;;;29.42;47.04
65997;BME280;52765;52.258;21.052;2022-08-21T12:16:48;100063.28;;;29.73;45.83
65997;BME280;52765;52.258;21.052;2022-08-21T12:21:58;100068.38;;;30.48;44.46
65997;BME280;52765;52.258;21.052;2022-08-21T12:27:01;100063.06;;;30.52;42.86
65997;BME280;52765;52.258;21.052;2022-08-21T12:29:37;100073.59;;;30.98;42.82
65997;BME280;52765;52.258;21.052;2022-08-21T12:32:18;100063.00;;;30.76;42.41
65997;BME280;52765;52.258;21.052;2022-08-21T12:34:55;100057.22;;;30.72;41.61
65997;BME280;52765;52.258;21.052;2022-08-21T12:39:59;100070.84;;;31.31;40.77
65997;BME280;52765;52.258;21.052;2022-08-21T12:42:37;100062.84;;;31.62;40.51
65997;BME280;52765;52.258;21.052;2022-08-21T12:45:26;100061.63;;;31.68;40.63
65997;BME280;52765;52.258;21.052;2022-08-21T12:48:00;100060.38;;;32.07;40.20
65997;BME280;52765;52.258;21.052;2022-08-21T12:50:40;100054.41;;;32.42;39.87
65997;BME280;52765;52.258;21.052;2022-08-21T12:55:50;100071.59;;;31.56;41.00
65997;BME280;52765;52.258;21.052;2022-08-21T12:58:21;100074.22;;;30.90;43.08
65997;BME280;52765;52.258;21.052;2022-08-21T13:01:00;100076.00;;;30.37;43.89
65997;BME280;52765;52.258;21.052;2022-08-21T13:03:26;100080.50;;;30.04;45.07
65997;BME280;52765;52.258;21.052;2022-08-21T13:05:53;100080.66;;;29.88;45.38
65997;BME280;52765;52.258;21.052;2022-08-21T13:08:21;100083.09;;;29.61;46.31
65997;BME280;52765;52.258;21.052;2022-08-21T13:10:56;100071.50;;;29.53;46.14
65997;BME280;52765;52.258;21.052;2022-08-21T13:13:25;100067.88;;;29.58;46.29
65997;BME280;52765;52.258;21.052;2022-08-21T13:15:59;100073.56;;;29.72;46.24
65997;BME280;52765;52.258;21.052;2022-08-21T13:18:29;100068.25;;;29.76;45.76
65997;BME280;52765;52.258;21.052;2022-08-21T13:21:14;100072.69;;;29.82;46.25
65997;BME280;52765;52.258;21.052;2022-08-21T13:23:40;100069.84;;;29.87;46.06
65997;BME280;52765;52.258;21.052;2022-08-21T13:26:19;100067.44;;;29.75;45.77
65997;BME280;52765;52.258;21.052;2022-08-21T13:28:47;100059.78;;;29.62;45.89
65997;BME280;52765;52.258;21.052;2022-08-21T13:31:27;100058.81;;;29.77;45.46
65997;BME280;52765;52.258;21.052;2022-08-21T13:33:59;100066.38;;;30.00;45.07
65997;BME280;52765;52.258;21.052;2022-08-21T13:36:37;100066.19;;;30.45;44.54
65997;BME280;52765;52.258;21.052;2022-08-21T13:39:07;100067.50;;;30.72;43.84
65997;BME280;52765;52.258;21.052;2022-08-21T13:41:38;100071.00;;;30.34;44.40
65997;BME280;52765;52.258;21.052;2022-08-21T13:44:16;100073.91;;;30.00;44.97
65997;BME280;52765;52.258;21.052;2022-08-21T13:46:44;100072.41;;;29.83;44.96
65997;BME280;52765;52.258;21.052;2022-08-21T13:49:10;100077.44;;;29.76;45.69
65997;BME280;52765;52.258;21.052;2022-08-21T13:51:38;100071.22;;;29.55;46.00
65997;BME280;52765;52.258;21.052;2022-08-21T13:56:49;100075.78;;;29.41;46.76
65997;BME280;52765;52.258;21.052;2022-08-21T14:02:01;100061.41;;;29.33;46.86
65997;BME280;52765;52.258;21.052;2022-08-21T14:04:36;100071.00;;;29.81;45.70
65997;BME280;52765;52.258;21.052;2022-08-21T14:07:15;100068.44;;;30.43;44.38
65997;BME280;52765;52.258;21.052;2022-08-21T14:09:43;100069.94;;;30.78;43.06
65997;BME280;52765;52.258;21.052;2022-08-21T14:12:28;100068.47;;;31.05;41.91
65997;BME280;52765;52.258;21.052;2022-08-21T14:14:55;100064.59;;;31.39;41.60